createdAt,value
2023-03-11T00:13:49.949Z,12.17
2023-03-11T00:28:51.781Z,14.40
2023-03-11T00:43:53.646Z,16.77
2023-03-11T00:58:55.771Z,12.77
2023-03-11T01:13:58.162Z,12.07
2023-03-11T01:28:59.975Z,9.73
2023-03-11T01:44:02.585Z,9.50
2023-03-11T01:59:06.657Z,9.67
2023-03-11T02:14:09.517Z,9.40
2023-03-11T02:29:18.185Z,8.50
2023-03-11T02:44:20.142Z,8.60
2023-03-11T02:59:22.521Z,10.03
2023-03-11T03:14:24.387Z,8.00
2023-03-11T03:29:26.187Z,8.80
2023-03-11T03:44:28.156Z,8.67
2023-03-11T03:59:30.481Z,8.93
2023-03-11T04:14:32.331Z,10.00
2023-03-11T04:29:35.006Z,9.37
2023-03-11T04:44:36.912Z,8.23
2023-03-11T04:59:39.046Z,10.57
2023-03-11T05:14:41.037Z,8.70
2023-03-11T05:29:43.860Z,7.63
2023-03-11T05:44:45.732Z,6.93
2023-03-11T05:59:47.907Z,7.13
2023-03-11T06:14:49.727Z,5.20
2023-03-11T06:29:54.935Z,5.13
2023-03-11T06:44:57.016Z,4.00
2023-03-11T07:00:00.144Z,4.87
2023-03-11T07:15:06.578Z,4.53
2023-03-11T07:30:09.292Z,4.50
2023-03-11T07:45:11.456Z,4.80
2023-03-11T08:00:14.194Z,5.07
2023-03-11T08:15:16.034Z,4.83
2023-03-11T08:30:18.233Z,6.37
2023-03-11T08:45:20.071Z,6.50
2023-03-11T09:00:22.970Z,6.70
2023-03-11T09:15:25.208Z,5.77
2023-03-11T09:30:27.429Z,6.93
2023-03-11T09:45:32.394Z,8.10
2023-03-11T10:00:35.840Z,7.23
2023-03-11T10:16:05.054Z,7.73
2023-03-11T10:31:21.895Z,7.07
2023-03-11T10:46:27.260Z,7.50
2023-03-11T11:01:30.695Z,8.13
2023-03-11T11:16:36.740Z,8.53
2023-03-11T11:31:44.079Z,7.13
2023-03-11T11:47:13.376Z,6.87
2023-03-11T12:02:33.897Z,7.63
2023-03-11T12:17:40.473Z,6.67
2023-03-11T12:32:50.153Z,6.60
2023-03-11T12:48:29.836Z,6.63
2023-03-11T13:03:39.674Z,6.33
2023-03-11T13:18:43.947Z,7.27
2023-03-11T13:34:02.683Z,7.53
2023-03-11T13:49:33.881Z,6.47
2023-03-11T14:04:37.988Z,6.10
2023-03-11T14:19:39.822Z,5.73
2023-03-11T14:34:41.798Z,4.30
2023-03-11T14:49:44.257Z,7.03
2023-03-11T15:04:46.939Z,6.97
2023-03-11T15:19:49.567Z,6.37
2023-03-11T15:35:07.656Z,7.00
2023-03-11T15:50:24.439Z,7.30
2023-03-11T16:05:28.028Z,7.80
2023-03-11T16:20:36.681Z,7.87
2023-03-11T16:35:38.758Z,7.47
2023-03-11T16:50:41.803Z,7.83
2023-03-11T17:05:44.140Z,8.20
2023-03-11T17:20:46.001Z,9.70
2023-03-11T17:35:47.865Z,9.20
2023-03-11T17:50:50.001Z,9.40
2023-03-11T18:06:01.288Z,8.33
2023-03-11T18:21:06.156Z,7.23
2023-03-11T18:36:19.258Z,9.70
2023-03-11T18:51:22.583Z,8.63
2023-03-11T19:06:27.665Z,8.00
2023-03-11T19:21:29.600Z,9.00
2023-03-11T19:36:31.768Z,8.30
2023-03-11T19:51:48.530Z,9.63
2023-03-11T20:06:51.500Z,9.23
2023-03-11T20:21:53.337Z,8.23
2023-03-11T20:36:55.205Z,9.37
2023-03-11T20:51:57.105Z,9.50
2023-03-11T21:06:58.992Z,9.07
2023-03-11T21:22:00.920Z,10.10
2023-03-11T21:37:02.855Z,8.77
2023-03-11T21:52:06.555Z,9.43
2023-03-11T22:07:09.127Z,10.20
2023-03-11T22:22:11.028Z,10.17
2023-03-11T22:37:12.899Z,10.67
2023-03-11T22:52:14.766Z,9.37
2023-03-11T23:07:16.678Z,8.97
2023-03-11T23:22:18.706Z,10.40
2023-03-11T23:37:20.634Z,9.70
2023-03-11T23:52:23.138Z,9.70
